Sullivan, Indiana
Current Conditions -  °F | °C
As of 12:15 PM on Saturday 25 Oct 2014 (Local Time) from KRSV Reporting Station
Clear Clear  
Wind Chill: 71°   Ceiling: Unl
Heat Index: 71°   Visibility: 10mi
Dew Point: 59°   Wind: 5mph
Humidity: 66%   Direction: 310°NW
Pressure: 30.02"   Gusts: NA
Location:  39.1°N, 87.41°W
Report Text: KRSV 251615Z AUTO 31004KT 10SM CLR 22/15 A3002 RMK AO2 T02150148
Loading
Personal Weather Stations






























Interactive Weather Map
Tropical Storm Tracking
New forecast layout! Learn more

10-Day Weather Forecast

Advertisements
Track Severe Weather on mobile